Time;durP1;ratioP1;P1;durP2;ratioP2;P2;SDS_P1;SDS_P2;PMS_P1;PMS_P2;Temp;Humidity;BMP_temperature;BMP_pressure;BME280_temperature;BME280_humidity;BME280_pressure;Samples;Min_cycle;Max_cycle;Signal;HPM_P1;HPM_P2
2021/12/20 00:02:07;;;;;;;;;;;5.90;99.90;;;;;;4971752;28;20131;-74
2021/12/20 00:04:32;;;;;;;30.23;4.13;;;5.90;99.90;;;;;;4970427;28;19937;-74
2021/12/20 00:06:58;;;;;;;29.02;4.38;;;5.90;99.90;;;;;;4953305;28;20817;-74
2021/12/20 00:09:24;;;;;;;20.77;3.72;;;5.90;99.90;;;;;;4971066;28;20047;-74
2021/12/20 00:11:49;;;;;;;27.05;4.40;;;6.10;99.90;;;;;;4953467;28;20050;-74
2021/12/20 00:14:15;;;;;;;26.02;4.25;;;6.00;99.90;;;;;;4970808;28;20042;-75
2021/12/20 00:16:41;;;;;;;22.23;3.88;;;5.90;99.90;;;;;;4952791;28;20058;-76
2021/12/20 00:19:09;;;;;;;25.92;3.65;;;5.80;99.90;;;;;;4971454;28;20515;-74
2021/12/20 00:21:35;;;;;;;26.17;3.75;;;5.80;99.90;;;;;;4969914;28;20098;-74
2021/12/20 00:24:01;;;;;;;28.48;3.85;;;5.70;99.90;;;;;;4953362;28;20051;-74
2021/12/20 00:26:27;;;;;;;32.53;4.85;;;5.70;99.90;;;;;;4954039;28;20070;-74
2021/12/20 00:28:53;;;;;;;30.08;4.30;;;5.70;99.90;;;;;;4968089;28;20055;-74
2021/12/20 00:31:18;;;;;;;29.00;4.55;;;5.60;99.90;;;;;;4965216;28;20051;-76
2021/12/20 00:33:44;;;;;;;36.28;4.32;;;5.60;99.90;;;;;;4956783;28;20058;-74
2021/12/20 00:36:10;;;;;;;29.33;4.07;;;5.50;99.90;;;;;;4940876;28;20055;-74
2021/12/20 00:41:22;;;;;;;29.58;4.20;;;5.50;99.90;;;;;;4974502;28;20073;-74
2021/12/20 00:43:48;;;;;;;28.70;4.30;;;5.50;99.90;;;;;;4946121;29;20043;-75
2021/12/20 00:46:14;;;;;;;17.77;3.45;;;6.00;99.90;;;;;;4938158;29;20505;-74
2021/12/20 00:48:39;;;;;;;24.05;3.97;;;5.40;99.90;;;;;;4965337;28;20046;-74
2021/12/20 00:51:05;;;;;;;27.75;4.35;;;5.40;99.90;;;;;;4973870;28;20537;-74
2021/12/20 00:53:31;;;;;;;27.95;4.53;;;5.30;99.90;;;;;;4964651;28;20051;-81
2021/12/20 00:55:57;;;;;;;24.08;3.92;;;5.30;99.90;;;;;;4941028;28;20062;-73
2021/12/20 00:58:22;;;;;;;34.42;4.40;;;5.20;99.90;;;;;;4957674;28;20050;-74
2021/12/20 01:00:55;;;;;;;37.38;5.65;;;5.20;99.90;;;;;;4974121;28;20046;-74
2021/12/20 01:03:21;;;;;;;27.67;4.22;;;5.10;99.90;;;;;;4974537;28;20054;-74
2021/12/20 01:05:47;;;;;;;32.45;4.95;;;5.00;99.90;;;;;;4972980;28;20059;-73
2021/12/20 01:08:13;;;;;;;27.83;4.40;;;5.00;99.90;;;;;;4970383;28;20054;-74
2021/12/20 01:10:46;;;;;;;28.77;4.18;;;4.90;99.90;;;;;;4940763;28;20126;-74
2021/12/20 01:13:13;;;;;;;23.50;4.28;;;4.90;99.90;;;;;;4974376;28;20050;-74
2021/12/20 01:15:46;;;;;;;26.65;3.53;;;4.90;99.90;;;;;;4956851;28;20047;-74
2021/12/20 01:18:13;;;;;;;35.05;3.72;;;4.80;99.90;;;;;;4973600;28;20054;-75
2021/12/20 01:20:41;;;;;;;29.95;3.70;;;4.80;99.90;;;;;;4956304;28;20481;-75
2021/12/20 01:23:08;;;;;;;21.85;3.42;;;4.80;99.90;;;;;;4955782;28;20074;-74
2021/12/20 01:25:34;;;;;;;25.02;3.72;;;4.70;99.90;;;;;;4974361;28;20048;-74
2021/12/20 01:28:00;;;;;;;29.00;4.85;;;4.70;99.90;;;;;;4955258;28;20050;-75
2021/12/20 01:30:27;;;;;;;32.00;4.25;;;4.60;99.90;;;;;;4956965;28;20049;-76
2021/12/20 01:32:53;;;;;;;25.02;3.85;;;4.60;99.90;;;;;;4956059;28;20047;-74
2021/12/20 01:35:22;;;;;;;29.42;3.50;;;4.50;99.90;;;;;;4974060;28;20511;-74
2021/12/20 01:37:48;;;;;;;32.60;4.57;;;4.50;99.90;;;;;;4954875;28;20576;-74
2021/12/20 01:40:16;;;;;;;27.25;4.00;;;4.40;99.90;;;;;;4956076;28;20057;-74
2021/12/20 01:42:43;;;;;;;27.42;3.90;;;4.30;99.90;;;;;;4971966;28;20126;-74
2021/12/20 01:45:17;;;;;;;23.92;3.42;;;4.30;99.90;;;;;;4973862;28;20057;-74
2021/12/20 01:47:48;;;;;;;31.33;4.32;;;4.20;99.90;;;;;;4972683;28;20488;-74
2021/12/20 01:50:37;;;;;;;33.65;4.28;;;4.20;99.90;;;;;;4956267;28;20139;-74
2021/12/20 01:53:00;;;;;;;25.90;3.88;;;4.10;99.90;;;;;;4970661;28;20113;-75
2021/12/20 01:55:26;;;;;;;25.80;3.10;;;4.00;99.90;;;;;;4956157;28;20046;-75
2021/12/20 01:57:52;;;;;;;17.35;3.35;;;4.00;99.90;;;;;;4972456;28;20050;-74
2021/12/20 02:00:23;;;;;;;20.63;4.18;;;3.90;99.90;;;;;;4973531;28;20129;-74
2021/12/20 02:02:54;;;;;;;22.90;3.20;;;4.00;99.90;;;;;;4955665;28;20058;-73
2021/12/20 02:05:28;;;;;;;29.48;4.00;;;3.80;99.90;;;;;;4938339;29;20073;-74
2021/12/20 02:08:13;;;;;;;26.42;3.35;;;3.70;99.90;;;;;;4934997;29;20090;-75
2021/12/20 02:10:39;;;;;;;26.23;3.45;;;3.70;99.90;;;;;;4937135;29;20121;-76
2021/12/20 02:13:05;;;;;;;29.75;4.40;;;3.70;99.90;;;;;;4935772;29;20480;-74
2021/12/20 02:15:31;;;;;;;25.08;3.53;;;3.70;99.90;;;;;;4937051;29;20091;-74
2021/12/20 02:17:57;;;;;;;32.22;3.72;;;3.70;99.90;;;;;;4935796;29;20138;-74
2021/12/20 02:20:28;;;;;;;27.50;3.97;;;3.60;99.90;;;;;;4967398;28;20086;-74
2021/12/20 02:22:59;;;;;;;25.90;3.42;;;3.60;99.90;;;;;;4971093;28;20043;-74
2021/12/20 02:25:27;;;;;;;27.45;3.63;;;3.50;99.90;;;;;;4956144;28;20061;-74
2021/12/20 02:27:53;;;;;;;30.95;4.47;;;3.50;99.90;;;;;;4972148;28;20054;-74
2021/12/20 02:38:27;;;;;;;26.83;4.15;;;3.40;99.90;;;;;;4972340;28;20059;-74
2021/12/20 02:40:57;;;;;;;26.27;3.72;;;3.30;99.90;;;;;;4952310;28;20524;-74
2021/12/20 02:43:23;;;;;;;28.95;4.20;;;3.30;99.90;;;;;;4972809;28;20055;-74
2021/12/20 02:45:49;;;;;;;27.50;3.75;;;3.30;99.90;;;;;;4972269;28;20050;-74
2021/12/20 02:48:15;;;;;;;17.55;3.63;;;3.30;99.90;;;;;;4972461;28;20392;-73
2021/12/20 02:50:40;;;;;;;24.83;3.88;;;3.20;99.90;;;;;;4955199;28;20053;-74
2021/12/20 02:53:06;;;;;;;33.58;4.15;;;3.20;99.90;;;;;;4952260;28;20520;-75
2021/12/20 02:55:31;;;;;;;28.80;3.28;;;3.10;99.90;;;;;;4955690;28;20055;-75
2021/12/20 02:57:57;;;;;;;27.10;3.65;;;3.10;99.90;;;;;;4940770;29;20362;-74
2021/12/20 03:00:23;;;;;;;33.42;4.60;;;3.20;99.90;;;;;;4952063;29;20070;-74
2021/12/20 03:02:49;;;;;;;26.38;3.63;;;3.00;99.90;;;;;;4951258;29;20110;-78
2021/12/20 03:05:14;;;;;;;22.85;3.17;;;3.00;99.90;;;;;;4965672;28;20400;-74
2021/12/20 03:07:47;;;;;;;26.75;3.67;;;2.90;99.90;;;;;;4970917;28;20076;-75
2021/12/20 03:10:13;;;;;;;39.83;5.72;;;2.90;99.90;;;;;;4972124;28;20130;-74
2021/12/20 03:12:39;;;;;;;36.60;4.95;;;2.90;99.90;;;;;;4954811;28;20065;-73
2021/12/20 03:15:12;;;;;;;34.40;4.85;;;2.80;99.90;;;;;;4954459;28;20058;-74
2021/12/20 03:17:38;;;;;;;24.70;3.92;;;2.80;99.90;;;;;;4954559;28;20519;-75
2021/12/20 03:20:05;;;;;;;22.58;3.55;;;2.80;99.90;;;;;;4954315;28;20055;-74
2021/12/20 03:22:31;;;;;;;22.73;3.20;;;2.80;99.90;;;;;;4970698;28;20134;-74
2021/12/20 03:24:57;;;;;;;32.75;3.78;;;2.70;99.90;;;;;;4938720;28;20130;-74
2021/12/20 03:27:22;;;;;;;39.75;4.28;;;2.70;99.90;;;;;;4954852;28;20047;-74
2021/12/20 03:29:48;;;;;;;26.17;3.63;;;2.70;99.90;;;;;;4971870;28;20074;-81
2021/12/20 03:32:14;;;;;;;27.83;4.22;;;2.70;99.90;;;;;;4938538;28;20468;-74
2021/12/20 03:34:40;;;;;;;23.52;3.83;;;2.70;99.90;;;;;;4954383;28;20059;-75
2021/12/20 03:37:05;;;;;;;27.80;3.88;;;2.60;99.90;;;;;;4953609;28;20401;-73
2021/12/20 03:39:31;;;;;;;28.35;3.50;;;2.60;99.90;;;;;;4971559;28;20051;-74
2021/12/20 03:41:58;;;;;;;28.10;4.35;;;2.60;99.90;;;;;;4969715;28;20050;-74
2021/12/20 03:44:23;;;;;;;28.33;4.55;;;2.60;99.90;;;;;;4970755;28;20052;-74
2021/12/20 03:46:49;;;;;;;26.67;4.32;;;2.60;99.90;;;;;;4954492;28;20097;-80
2021/12/20 03:49:15;;;;;;;28.23;4.18;;;2.60;99.90;;;;;;4971208;28;20489;-74
2021/12/20 03:51:42;;;;;;;34.67;4.65;;;2.60;99.90;;;;;;4970740;28;20047;-74
2021/12/20 03:54:08;;;;;;;30.55;4.28;;;2.60;99.90;;;;;;4951444;28;20051;-75
2021/12/20 03:56:33;;;;;;;30.30;3.97;;;2.60;99.90;;;;;;4954275;28;20051;-74
2021/12/20 03:59:00;;;;;;;29.17;4.55;;;2.60;99.90;;;;;;4954170;28;20408;-76
2021/12/20 04:01:26;;;;;;;30.70;4.13;;;3.10;99.90;;;;;;4954411;28;20057;-74
2021/12/20 04:03:52;;;;;;;;;;;2.60;99.90;;;;;;4972725;28;20508;-81
2021/12/20 04:06:18;;;;;;;25.85;2.90;;;2.60;99.90;;;;;;4974745;28;19933;-74
2021/12/20 04:08:44;;;;;;;35.75;4.13;;;3.40;99.90;;;;;;4975160;28;20066;-75
2021/12/20 04:11:09;;;;;;;35.63;4.55;;;2.50;99.90;;;;;;4957373;28;20050;-74
2021/12/20 04:13:36;;;;;;;28.77;4.35;;;2.50;99.90;;;;;;4975057;28;20042;-75
2021/12/20 04:16:02;;;;;;;24.40;4.13;;;2.50;99.90;;;;;;4957512;28;20061;-74
2021/12/20 04:18:29;;;;;;;38.03;4.32;;;2.50;99.90;;;;;;4975187;28;20055;-74
2021/12/20 04:20:55;;;;;;;27.83;3.72;;;2.40;99.90;;;;;;4974490;28;20051;-79
2021/12/20 04:23:21;;;;;;;25.05;3.47;;;2.40;99.90;;;;;;4957084;28;20141;-74
2021/12/20 04:25:46;;;;;;;36.97;4.55;;;2.30;99.90;;;;;;4958053;28;20057;-76
2021/12/20 04:28:12;;;;;;;31.45;3.30;;;2.30;99.90;;;;;;4957367;28;20207;-74
2021/12/20 04:30:38;;;;;;;24.48;3.85;;;2.40;99.90;;;;;;4975206;28;20547;-74
2021/12/20 04:33:04;;;;;;;30.95;4.38;;;2.30;99.90;;;;;;4941241;28;20058;-74
2021/12/20 04:35:30;;;;;;;;;;;2.20;99.90;;;;;;4975753;28;20062;-74
2021/12/20 04:37:58;;;;;;;33.22;3.92;;;2.90;99.90;;;;;;4940237;28;19922;-77
2021/12/20 04:40:24;;;;;;;21.35;2.88;;;2.30;99.90;;;;;;4973834;28;20043;-74
2021/12/20 04:42:54;;;;;;;31.48;3.97;;;2.10;99.90;;;;;;4957471;28;20038;-73
2021/12/20 04:45:21;;;;;;;24.17;3.45;;;2.20;99.90;;;;;;4975020;28;20089;-75
2021/12/20 04:47:47;;;;;;;23.70;3.75;;;2.00;99.90;;;;;;4974698;28;20680;-74
2021/12/20 04:50:13;;;;;;;32.78;3.88;;;1.90;99.90;;;;;;4957257;28;20125;-74
2021/12/20 04:52:41;;;;;;;26.70;3.88;;;1.90;99.90;;;;;;4973356;28;20050;-74
2021/12/20 04:55:08;;;;;;;23.08;3.03;;;1.90;99.90;;;;;;4957122;28;20101;-74
2021/12/20 04:57:34;;;;;;;30.33;4.32;;;1.90;99.90;;;;;;4974363;28;20054;-75
2021/12/20 04:59:59;;;;;;;22.23;3.10;;;1.90;99.90;;;;;;4973651;28;20562;-73
2021/12/20 05:02:26;;;;;;;25.10;4.57;;;1.80;99.90;;;;;;4974365;28;20051;-75
2021/12/20 05:04:51;;;;;;;29.25;4.47;;;1.90;99.90;;;;;;4974695;28;20555;-74
2021/12/20 05:07:17;;;;;;;26.58;4.05;;;1.70;99.90;;;;;;4956023;28;20047;-74
2021/12/20 05:09:43;;;;;;;35.90;3.75;;;1.70;99.90;;;;;;4974033;28;20038;-75
2021/12/20 05:12:14;;;;;;;26.23;3.55;;;1.70;99.90;;;;;;4956273;28;20065;-73
2021/12/20 05:14:44;;;;;;;35.78;4.10;;;1.60;99.90;;;;;;4957266;28;20092;-75
2021/12/20 05:17:12;;;;;;;33.78;3.90;;;1.60;99.90;;;;;;4955634;28;20055;-74
2021/12/20 05:19:39;;;;;;;28.33;2.92;;;1.60;99.90;;;;;;4940846;28;20047;-73
2021/12/20 05:22:05;;;;;;;22.15;2.83;;;1.50;99.90;;;;;;4972722;28;20039;-74
2021/12/20 05:24:30;;;;;;;;;;;1.50;99.90;;;;;;4974320;28;20047;-74
2021/12/20 05:26:56;;;;;;;24.33;3.20;;;2.10;99.90;;;;;;4973636;28;19929;-80
2021/12/20 05:29:24;;;;;;;17.02;2.90;;;1.50;99.90;;;;;;4956744;28;20445;-75
2021/12/20 05:31:50;;;;;;;36.90;3.60;;;1.70;99.90;;;;;;4956775;28;20098;-74
2021/12/20 05:34:16;;;;;;;17.65;3.05;;;1.90;99.90;;;;;;4956010;28;20043;-74
2021/12/20 05:36:41;;;;;;;32.65;2.92;;;1.40;99.90;;;;;;4972123;28;20528;-74
2021/12/20 05:39:07;;;;;;;30.33;3.90;;;1.50;99.90;;;;;;4955662;28;20054;-75
2021/12/20 05:41:33;;;;;;;30.63;2.80;;;1.40;99.90;;;;;;4973350;28;20146;-74
2021/12/20 05:43:59;;;;;;;21.83;3.00;;;1.50;99.90;;;;;;4939690;28;20055;-80
2021/12/20 05:46:24;;;;;;;28.80;3.30;;;1.70;99.90;;;;;;4956230;28;20059;-74
2021/12/20 05:48:50;;;;;;;32.15;3.95;;;1.30;99.90;;;;;;4973899;28;20503;-74
2021/12/20 05:51:16;;;;;;;18.65;2.78;;;1.30;99.90;;;;;;4972295;28;20117;-75
2021/12/20 05:53:42;;;;;;;21.02;3.17;;;1.30;99.90;;;;;;4955896;28;20527;-75
2021/12/20 05:56:07;;;;;;;21.13;3.28;;;1.20;99.90;;;;;;4939657;28;20051;-76
2021/12/20 05:58:34;;;;;;;23.95;3.72;;;1.20;99.90;;;;;;4956641;28;20050;-73
2021/12/20 06:00:59;;;;;;;20.20;2.95;;;1.10;99.90;;;;;;4972157;28;20082;-80
2021/12/20 06:03:25;;;;;;;24.85;3.55;;;1.20;99.90;;;;;;4973477;28;20476;-74
2021/12/20 06:05:51;;;;;;;19.92;3.10;;;1.10;99.90;;;;;;4940339;28;20057;-74
2021/12/20 06:08:17;;;;;;;22.10;3.50;;;2.10;99.90;;;;;;4954110;28;20042;-74
2021/12/20 06:10:42;;;;;;;27.63;2.65;;;1.10;99.90;;;;;;4940195;28;20061;-74
2021/12/20 06:13:08;;;;;;;22.40;3.40;;;1.00;99.90;;;;;;4972106;28;20137;-74
2021/12/20 06:15:34;;;;;;;26.35;3.30;;;1.00;99.90;;;;;;4940176;28;20069;-74
2021/12/20 06:18:00;;;;;;;19.73;3.13;;;1.00;99.90;;;;;;4972928;28;20054;-80
2021/12/20 06:20:26;;;;;;;14.63;2.55;;;1.00;99.90;;;;;;4955597;28;20053;-74
2021/12/20 06:22:51;;;;;;;23.00;3.83;;;0.90;99.90;;;;;;4971684;28;20141;-74
2021/12/20 06:25:20;;;;;;;21.90;2.97;;;0.90;99.90;;;;;;4971594;28;20062;-74
2021/12/20 06:27:47;;;;;;;140.05;10.20;;;0.90;99.90;;;;;;4955402;28;20060;-74
2021/12/20 06:30:14;;;;;;;104.30;8.75;;;0.80;99.90;;;;;;4955414;28;20132;-75
2021/12/20 06:32:42;;;;;;;185.52;11.23;;;0.80;99.90;;;;;;4952022;29;20128;-76
2021/12/20 06:35:09;;;;;;;127.65;6.90;;;0.90;99.90;;;;;;4952956;29;20051;-75
2021/12/20 06:37:35;;;;;;;41.88;3.70;;;0.70;99.90;;;;;;4934667;29;20057;-75
2021/12/20 06:40:01;;;;;;;;;;;1.30;99.90;;;;;;4953917;29;20070;-75
2021/12/20 06:42:27;;;;;;;183.40;11.32;;;0.60;99.90;;;;;;4956901;28;20363;-74
2021/12/20 06:44:53;;;;;;;56.95;3.67;;;0.60;99.90;;;;;;4972904;28;20503;-76
2021/12/20 06:47:20;;;;;;;57.70;4.28;;;1.50;99.90;;;;;;4970910;28;20477;-76
2021/12/20 06:49:45;;;;;;;;;;;0.60;99.90;;;;;;4973019;28;20043;-75
2021/12/20 06:52:11;;;;;;;151.25;7.55;;;0.60;99.90;;;;;;4954043;28;20430;-77
2021/12/20 06:54:37;;;;;;;46.95;3.58;;;0.60;99.90;;;;;;4970994;28;20039;-76
2021/12/20 06:57:03;;;;;;;17.00;2.85;;;0.60;99.90;;;;;;4955025;28;20070;-74
2021/12/20 06:59:29;;;;;;;29.95;2.97;;;0.60;99.90;;;;;;4954688;28;20101;-76
2021/12/20 07:01:54;;;;;;;12.55;2.75;;;0.60;99.90;;;;;;4972223;28;20484;-75
2021/12/20 07:04:20;;;;;;;18.13;4.35;;;0.60;99.90;;;;;;4934694;29;20043;-75
2021/12/20 07:06:46;;;;;;;11.20;2.92;;;0.60;99.90;;;;;;4919144;29;20062;-78
2021/12/20 07:09:12;;;;;;;17.10;3.50;;;0.60;99.90;;;;;;4919395;29;20058;-75
2021/12/20 07:11:40;;;;;;;;;;;0.60;99.90;;;;;;4952913;29;20110;-75
2021/12/20 07:14:07;;;;;;;18.42;3.22;;;0.60;99.90;;;;;;4954803;28;19970;-80
2021/12/20 07:16:34;;;;;;;14.00;2.10;;;0.60;99.90;;;;;;4954302;28;20070;-75
2021/12/20 07:19:01;;;;;;;17.23;3.00;;;0.50;99.90;;;;;;4954942;28;20053;-75
2021/12/20 07:21:26;;;;;;;25.80;4.00;;;0.70;99.90;;;;;;4968677;28;20054;-75
2021/12/20 07:23:52;;;;;;;23.27;3.58;;;0.50;99.90;;;;;;4970849;28;20046;-76
2021/12/20 07:26:18;;;;;;;23.98;4.88;;;0.40;99.90;;;;;;4952355;28;20055;-75
2021/12/20 07:28:45;;;;;;;26.20;4.30;;;0.40;99.90;;;;;;4954827;28;20362;-75
2021/12/20 07:31:11;;;;;;;22.67;4.25;;;0.40;99.90;;;;;;4954235;28;20457;-78
2021/12/20 07:33:37;;;;;;;28.65;4.82;;;0.30;99.90;;;;;;4968578;28;20121;-76
2021/12/20 07:36:03;;;;;;;;;;;0.30;99.90;;;;;;4970387;28;20168;-76
2021/12/20 07:38:29;;;;;;;29.15;4.90;;;0.20;99.90;;;;;;4953355;28;20158;-77
2021/12/20 07:40:55;;;;;;;28.20;5.85;;;0.70;99.90;;;;;;4971368;28;20734;-76
2021/12/20 07:43:21;;;;;;;24.20;4.93;;;1.00;99.90;;;;;;4953815;28;20046;-76
2021/12/20 07:45:48;;;;;;;29.33;4.75;;;1.10;99.90;;;;;;4971217;28;20140;-76
2021/12/20 07:48:19;;;;;;;27.92;5.55;;;0.20;99.90;;;;;;4939123;29;20061;-74
2021/12/20 07:50:46;;;;;;;22.90;3.78;;;0.10;99.90;;;;;;4935635;29;20134;-75
2021/12/20 07:53:12;;;;;;;30.33;4.10;;;0.10;99.90;;;;;;4933498;29;20055;-81
2021/12/20 07:55:38;;;;;;;19.90;3.92;;;0.40;99.90;;;;;;4951296;28;20053;-74
2021/12/20 07:58:04;;;;;;;20.20;3.97;;;0.10;99.90;;;;;;4971442;28;20097;-75
2021/12/20 08:00:29;;;;;;;37.15;4.57;;;0.10;99.90;;;;;;4969523;28;20093;-75
2021/12/20 08:02:56;;;;;;;29.15;4.75;;;0.10;99.90;;;;;;4954128;28;20133;-75
2021/12/20 08:05:24;;;;;;;22.50;5.10;;;0.10;99.90;;;;;;4931551;29;20126;-75
2021/12/20 08:07:50;;;;;;;26.63;4.00;;;0.10;99.90;;;;;;4945430;28;20054;-75
2021/12/20 08:10:27;;;;;;;31.35;4.55;;;0.10;99.90;;;;;;4953826;28;20125;-77
2021/12/20 08:12:53;;;;;;;29.50;5.70;;;0.10;99.90;;;;;;4954054;28;20488;-75
2021/12/20 08:15:21;;;;;;;39.70;5.30;;;0.00;99.90;;;;;;4946344;29;20516;-76
2021/12/20 08:17:48;;;;;;;25.38;5.30;;;0.00;99.90;;;;;;4965550;28;20070;-76
2021/12/20 08:20:14;;;;;;;26.23;4.65;;;0.00;99.90;;;;;;4953725;28;20145;-82
2021/12/20 08:22:40;;;;;;;29.42;4.80;;;0.00;99.90;;;;;;4917984;29;20090;-75
2021/12/20 08:25:07;;;;;;;37.00;5.85;;;0.00;99.90;;;;;;4955987;28;20579;-76
2021/12/20 08:27:33;;;;;;;29.83;5.18;;;0.00;99.90;;;;;;4934102;28;20055;-76
2021/12/20 08:29:59;;;;;;;;;;;0.10;99.90;;;;;;4971894;28;20170;-76
2021/12/20 08:32:25;;;;;;;23.45;5.00;;;0.10;99.90;;;;;;4953526;28;20394;-77
2021/12/20 08:34:51;;;;;;;28.25;5.45;;;0.00;99.90;;;;;;4938528;28;20384;-76
2021/12/20 08:37:17;;;;;;;32.92;5.88;;;0.10;99.90;;;;;;4947485;29;20066;-85
2021/12/20 08:39:42;;;;;;;26.05;4.55;;;0.10;99.90;;;;;;4934907;29;20059;-77
2021/12/20 08:42:08;;;;;;;21.25;4.30;;;0.10;99.90;;;;;;4935171;29;20039;-77
2021/12/20 08:44:35;;;;;;;29.60;4.55;;;0.10;99.90;;;;;;4935102;29;20056;-78
2021/12/20 08:47:01;;;;;;;29.73;5.40;;;0.10;99.90;;;;;;4921736;29;20134;-80
2021/12/20 08:49:28;;;;;;;28.92;5.68;;;0.10;99.90;;;;;;4949384;28;20073;-80
2021/12/20 08:51:55;;;;;;;28.35;5.65;;;0.10;99.90;;;;;;4960939;28;20042;-75
2021/12/20 08:54:24;;;;;;;21.80;4.50;;;0.90;99.90;;;;;;4941831;29;20047;-77
2021/12/20 08:56:50;;;;;;;30.52;5.20;;;0.70;99.90;;;;;;4940415;29;20138;-75
2021/12/20 08:59:15;;;;;;;;;;;0.20;99.90;;;;;;4940693;29;20094;-75
2021/12/20 09:01:41;;;;;;;25.40;5.10;;;0.30;99.90;;;;;;4939939;29;20153;-75
2021/12/20 09:04:08;;;;;;;30.35;5.38;;;0.30;99.90;;;;;;4960333;28;20089;-75
2021/12/20 09:06:38;;;;;;;36.53;6.22;;;0.60;99.90;;;;;;4938994;28;20062;-75
2021/12/20 09:09:05;;;;;;;32.22;5.20;;;0.30;99.90;;;;;;4965021;28;20073;-76
2021/12/20 09:11:31;;;;;;;34.58;5.13;;;0.60;99.90;;;;;;4939033;28;20046;-76
2021/12/20 09:13:57;;;;;;;32.90;5.88;;;0.40;99.90;;;;;;4955308;28;20046;-76
2021/12/20 09:16:22;;;;;;;36.78;5.47;;;0.40;99.90;;;;;;4934687;29;20060;-84
2021/12/20 09:18:48;;;;;;;28.98;6.45;;;0.40;99.90;;;;;;4956290;28;20121;-76
2021/12/20 09:21:15;;;;;;;24.80;5.50;;;0.50;99.90;;;;;;4947091;29;20055;-76
2021/12/20 09:23:42;;;;;;;36.17;6.65;;;0.50;99.90;;;;;;4941565;28;20488;-77
2021/12/20 09:26:07;;;;;;;32.28;6.10;;;0.50;99.90;;;;;;4934156;28;20090;-77
2021/12/20 09:28:34;;;;;;;31.60;7.05;;;0.60;99.90;;;;;;4968033;28;20086;-80
2021/12/20 09:31:00;;;;;;;;;;;0.70;99.90;;;;;;4955207;28;20043;-76
2021/12/20 09:33:26;;;;;;;28.13;6.40;;;1.00;99.90;;;;;;4941794;28;20406;-78
2021/12/20 09:35:53;;;;;;;30.92;7.03;;;0.80;99.90;;;;;;4973396;28;20094;-78
2021/12/20 09:38:20;;;;;;;28.27;6.43;;;0.80;99.90;;;;;;4954704;28;20840;-77
2021/12/20 09:41:13;;;;;;;32.97;6.65;;;0.90;99.90;;;;;;4973611;28;20054;-78
2021/12/20 09:43:48;;;;;;;25.40;6.55;;;0.90;99.90;;;;;;4955645;28;20098;-78
2021/12/20 09:46:16;;;;;;;41.63;7.63;;;1.00;99.90;;;;;;4917390;29;20129;-78
2021/12/20 09:48:47;;;;;;;34.28;7.93;;;1.10;99.90;;;;;;4922619;29;20548;-79
2021/12/20 09:51:13;;;;;;;32.22;7.68;;;1.10;99.90;;;;;;4958271;28;20054;-77
2021/12/20 09:53:40;;;;;;;56.40;9.93;;;1.20;99.90;;;;;;4971588;28;20053;-77
2021/12/20 09:56:07;;;;;;;37.50;7.35;;;1.20;99.90;;;;;;4963160;28;20057;-79
2021/12/20 09:58:36;;;;;;;39.75;8.00;;;2.10;99.90;;;;;;4948791;28;20069;-79
2021/12/20 10:01:05;;;;;;;42.85;8.27;;;1.40;99.90;;;;;;4962585;28;20381;-79
2021/12/20 10:03:31;;;;;;;38.42;8.35;;;1.50;99.90;;;;;;4941292;28;20057;-76
2021/12/20 10:05:57;;;;;;;47.85;9.63;;;1.50;99.90;;;;;;4945606;28;20126;-77
2021/12/20 10:08:35;;;;;;;40.53;10.18;;;1.60;99.90;;;;;;4963159;28;20141;-80
2021/12/20 10:11:16;;;;;;;37.55;9.95;;;1.70;99.90;;;;;;4945678;28;20074;-76
2021/12/20 10:13:42;;;;;;;38.17;10.38;;;1.70;99.90;;;;;;4952561;28;20066;-77
2021/12/20 10:16:21;;;;;;;36.63;10.93;;;2.50;99.90;;;;;;4964583;28;20046;-77
2021/12/20 10:18:48;;;;;;;48.55;11.60;;;1.90;99.90;;;;;;4958914;28;20121;-78
2021/12/20 10:21:15;;;;;;;49.25;11.35;;;1.90;99.90;;;;;;4959704;28;20043;-77
2021/12/20 10:23:47;;;;;;;45.20;11.85;;;2.00;99.90;;;;;;4939828;29;20113;-76
2021/12/20 10:26:16;;;;;;;36.97;10.50;;;2.00;99.90;;;;;;4953695;28;20061;-77
2021/12/20 10:28:43;;;;;;;48.08;10.55;;;2.10;99.90;;;;;;4959543;28;20062;-76
2021/12/20 10:31:11;;;;;;;44.97;9.65;;;2.20;99.90;;;;;;4932699;28;20464;-77
2021/12/20 10:33:38;;;;;;;32.33;9.18;;;2.30;99.90;;;;;;4942376;28;20043;-77
2021/12/20 10:36:13;;;;;;;30.48;9.68;;;2.40;99.90;;;;;;4963122;28;20122;-77
2021/12/20 10:38:41;;;;;;;34.95;9.18;;;2.50;99.90;;;;;;4944844;28;20130;-77
2021/12/20 10:41:19;;;;;;;34.35;7.80;;;2.60;99.90;;;;;;4936112;29;20046;-78
2021/12/20 10:43:54;;;;;;;29.58;7.82;;;2.70;99.90;;;;;;4952563;28;20129;-76
2021/12/20 10:46:27;;;;;;;28.52;6.68;;;2.80;99.90;;;;;;4972484;28;20051;-76
2021/12/20 10:49:08;;;;;;;30.80;7.20;;;3.20;99.90;;;;;;4971827;28;20057;-76
2021/12/20 10:51:39;;;;;;;23.40;6.07;;;3.00;99.90;;;;;;4971536;28;20054;-76
2021/12/20 10:54:10;;;;;;;35.90;5.47;;;3.00;99.90;;;;;;4954214;28;20054;-76
2021/12/20 10:56:58;;;;;;;33.67;6.75;;;3.10;99.90;;;;;;4971470;28;20054;-77
2021/12/20 10:59:29;;;;;;;28.23;5.38;;;3.30;99.90;;;;;;4955318;28;20046;-76
2021/12/20 11:03:09;;;;;;;24.88;4.90;;;3.40;99.90;;;;;;4972009;28;20112;-76
2021/12/20 11:05:08;;;;;;;17.83;4.20;;;3.50;99.90;;;;;;4948297;29;20128;-77
2021/12/20 11:10:21;;;;;;;31.10;5.80;;;3.80;99.90;;;;;;4955115;28;20058;-77
2021/12/20 11:12:46;;;;;;;21.38;5.70;;;4.40;99.90;;;;;;4970859;28;20164;-77
2021/12/20 11:15:13;;;;;;;21.40;5.78;;;4.20;99.90;;;;;;4971433;28;20051;-77
2021/12/20 11:17:45;;;;;;;21.15;5.35;;;5.00;99.90;;;;;;4969884;28;20059;-76
2021/12/20 11:20:21;;;;;;;24.42;5.43;;;5.50;99.90;;;;;;4955029;28;20050;-74
2021/12/20 11:22:47;;;;;;;16.45;4.32;;;6.00;99.90;;;;;;4956222;28;20082;-76
2021/12/20 11:25:14;;;;;;;17.35;5.45;;;6.60;99.90;;;;;;4946518;28;20054;-75
2021/12/20 11:27:50;;;;;;;19.60;4.57;;;7.10;99.90;;;;;;4951638;29;20055;-75
2021/12/20 11:30:19;;;;;;;22.05;3.97;;;7.50;99.90;;;;;;4919992;29;20125;-75
2021/12/20 11:32:48;;;;;;;17.75;4.50;;;7.90;99.90;;;;;;4946564;28;20170;-75
2021/12/20 11:35:19;;;;;;;18.70;4.47;;;8.30;99.90;;;;;;4970819;28;20146;-75
2021/12/20 11:37:45;;;;;;;14.82;3.58;;;8.60;99.90;;;;;;4950179;28;20039;-75
2021/12/20 11:40:14;;;;;;;15.05;3.55;;;8.90;99.90;;;;;;4937070;28;20038;-75
2021/12/20 11:42:40;;;;;;;21.63;4.57;;;9.20;99.90;;;;;;4970344;28;20085;-76
2021/12/20 11:45:09;;;;;;;17.05;4.68;;;9.40;99.90;;;;;;4954406;28;20046;-76
2021/12/20 11:47:52;;;;;;;14.00;4.13;;;9.60;99.90;;;;;;4952829;28;20053;-81
2021/12/20 11:50:21;;;;;;;17.73;4.40;;;9.80;99.90;;;;;;4971989;28;20102;-75
2021/12/20 11:52:49;;;;;;;12.80;4.18;;;10.00;99.90;;;;;;4950226;28;20121;-77
2021/12/20 11:55:15;;;;;;;17.52;4.20;;;10.20;99.90;;;;;;4951723;28;20051;-78
2021/12/20 11:57:43;;;;;;;15.30;3.90;;;10.40;99.90;;;;;;4937343;28;20058;-77
2021/12/20 12:00:21;;;;;;;15.30;4.18;;;10.50;99.90;;;;;;4971350;28;20130;-75
2021/12/20 12:02:49;;;;;;;15.25;4.15;;;10.70;99.90;;;;;;4953898;28;20051;-75
2021/12/20 12:05:37;;;;;;;20.88;4.47;;;10.80;99.90;;;;;;4954519;28;20054;-76
2021/12/20 12:08:27;;;;;;;17.35;4.63;;;11.00;99.90;;;;;;4951270;28;20061;-77
2021/12/20 12:11:00;;;;;;;14.45;3.58;;;11.20;99.90;;;;;;4946331;28;20062;-75
2021/12/20 12:13:28;;;;;;;12.80;3.13;;;11.50;99.90;;;;;;4936977;28;20050;-77
2021/12/20 12:16:03;;;;;;;12.80;3.65;;;11.70;99.90;;;;;;4965894;28;20057;-74
2021/12/20 12:18:44;;;;;;;12.52;3.58;;;11.80;99.90;;;;;;4953869;28;20059;-74
2021/12/20 12:21:32;;;;;;;14.30;3.42;;;11.90;99.90;;;;;;4954121;28;20477;-75
2021/12/20 12:24:00;;;;;;;12.77;3.65;;;11.90;99.90;;;;;;4952179;28;20412;-75
2021/12/20 12:26:50;;;;;;;11.88;3.35;;;12.00;99.90;;;;;;4942044;28;20385;-76
2021/12/20 12:29:16;;;;;;;16.13;3.17;;;12.10;99.90;;;;;;4958393;28;20484;-75
2021/12/20 12:32:01;;;;;;;12.02;3.20;;;12.20;99.90;;;;;;4957551;28;20054;-75
2021/12/20 12:34:41;;;;;;;12.98;3.10;;;12.40;99.90;;;;;;4975049;28;20059;-75
2021/12/20 12:37:31;;;;;;;10.68;3.10;;;12.60;99.90;;;;;;4974775;28;20054;-75
2021/12/20 12:40:27;;;;;;;11.75;3.08;;;12.80;99.90;;;;;;4962311;28;20638;-75
2021/12/20 12:42:57;;;;;;;10.27;3.33;;;13.00;99.90;;;;;;4954737;29;20516;-74
2021/12/20 12:45:50;;;;;;;9.40;2.83;;;13.20;99.90;;;;;;4956403;29;20166;-76
2021/12/20 12:48:39;;;;;;;11.05;3.08;;;13.40;98.00;;;;;;4939336;29;20378;-77
2021/12/20 12:51:20;;;;;;;11.13;3.15;;;13.60;94.10;;;;;;4952342;28;20062;-76
2021/12/20 12:53:51;;;;;;;11.13;2.60;;;13.80;92.50;;;;;;4955544;28;20050;-74
2021/12/20 12:56:23;;;;;;;10.38;2.92;;;13.90;91.90;;;;;;4957868;28;20042;-77
2021/12/20 12:59:17;;;;;;;11.05;2.40;;;14.10;90.10;;;;;;4974079;28;20055;-79
2021/12/20 13:01:57;;;;;;;8.80;2.58;;;14.30;84.30;;;;;;4939321;28;20509;-75
2021/12/20 13:04:57;;;;;;;9.23;2.60;;;14.50;82.90;;;;;;4962736;28;20125;-76
2021/12/20 13:07:22;;;;;;;9.13;2.40;;;14.60;78.50;;;;;;4926021;28;20676;-75
2021/12/20 13:09:49;;;;;;;;;;;14.70;81.70;;;;;;4957078;28;20089;-75